sensor_id;sensor_type;location;lat;lon;timestamp;temperature;humidity
19654;DHT22;9975;48.046;7.804;2023-05-14T01:56:33;9.50;99.90
19654;DHT22;9975;48.046;7.804;2023-05-14T01:58:59;9.60;99.90
19654;DHT22;9975;48.046;7.804;2023-05-14T02:01:25;9.60;99.90
19654;DHT22;9975;48.046;7.804;2023-05-14T02:03:50;9.70;99.90
19654;DHT22;9975;48.046;7.804;2023-05-14T02:06:16;9.60;99.90
19654;DHT22;9975;48.046;7.804;2023-05-14T02:08:42;9.60;99.90
19654;DHT22;9975;48.046;7.804;2023-05-14T02:11:07;9.60;99.90
19654;DHT22;9975;48.046;7.804;2023-05-14T02:13:35;9.50;99.90
19654;DHT22;9975;48.046;7.804;2023-05-14T02:16:00;9.60;99.90
19654;DHT22;9975;48.046;7.804;2023-05-14T02:18:26;9.70;99.90
19654;DHT22;9975;48.046;7.804;2023-05-14T02:20:51;9.60;99.90
19654;DHT22;9975;48.046;7.804;2023-05-14T02:23:17;9.60;99.90
19654;DHT22;9975;48.046;7.804;2023-05-14T02:25:43;9.70;99.90
19654;DHT22;9975;48.046;7.804;2023-05-14T02:28:09;9.70;99.90
19654;DHT22;9975;48.046;7.804;2023-05-14T02:30:34;9.70;99.90
19654;DHT22;9975;48.046;7.804;2023-05-14T02:33:00;9.70;99.90
19654;DHT22;9975;48.046;7.804;2023-05-14T02:35:26;9.70;99.90
19654;DHT22;9975;48.046;7.804;2023-05-14T02:37:51;9.70;99.90
19654;DHT22;9975;48.046;7.804;2023-05-14T02:40:17;9.90;99.90
19654;DHT22;9975;48.046;7.804;2023-05-14T02:42:43;9.90;99.90
19654;DHT22;9975;48.046;7.804;2023-05-14T02:45:09;9.80;99.90
19654;DHT22;9975;48.046;7.804;2023-05-14T02:47:35;9.80;99.90
19654;DHT22;9975;48.046;7.804;2023-05-14T02:50:00;9.80;99.90
19654;DHT22;9975;48.046;7.804;2023-05-14T02:52:26;9.80;99.90
19654;DHT22;9975;48.046;7.804;2023-05-14T02:54:52;9.80;99.90
19654;DHT22;9975;48.046;7.804;2023-05-14T02:57:17;9.90;99.90
19654;DHT22;9975;48.046;7.804;2023-05-14T02:59:43;9.90;99.90
19654;DHT22;9975;48.046;7.804;2023-05-14T03:02:08;9.90;99.90
19654;DHT22;9975;48.046;7.804;2023-05-14T03:04:34;9.80;99.90
19654;DHT22;9975;48.046;7.804;2023-05-14T03:07:00;9.80;99.90
19654;DHT22;9975;48.046;7.804;2023-05-14T03:09:25;9.80;99.90
19654;DHT22;9975;48.046;7.804;2023-05-14T03:11:51;9.80;99.90
19654;DHT22;9975;48.046;7.804;2023-05-14T03:14:16;9.70;99.90
19654;DHT22;9975;48.046;7.804;2023-05-14T03:16:42;9.70;99.90
19654;DHT22;9975;48.046;7.804;2023-05-14T03:19:08;9.80;99.90
19654;DHT22;9975;48.046;7.804;2023-05-14T03:21:34;9.80;99.90
19654;DHT22;9975;48.046;7.804;2023-05-14T03:23:59;9.80;99.90
19654;DHT22;9975;48.046;7.804;2023-05-14T03:26:25;9.90;99.90
19654;DHT22;9975;48.046;7.804;2023-05-14T03:28:51;9.90;99.90
19654;DHT22;9975;48.046;7.804;2023-05-14T03:31:16;10.00;99.90
19654;DHT22;9975;48.046;7.804;2023-05-14T03:33:42;10.00;99.90
19654;DHT22;9975;48.046;7.804;2023-05-14T03:36:08;10.00;99.90
19654;DHT22;9975;48.046;7.804;2023-05-14T03:38:34;10.10;99.90
19654;DHT22;9975;48.046;7.804;2023-05-14T03:40:59;10.10;99.90
19654;DHT22;9975;48.046;7.804;2023-05-14T03:43:25;10.10;99.90
19654;DHT22;9975;48.046;7.804;2023-05-14T03:45:50;10.10;99.90
19654;DHT22;9975;48.046;7.804;2023-05-14T03:48:20;10.10;99.90
19654;DHT22;9975;48.046;7.804;2023-05-14T03:50:45;10.20;99.90
19654;DHT22;9975;48.046;7.804;2023-05-14T03:53:11;10.20;99.90
19654;DHT22;9975;48.046;7.804;2023-05-14T03:55:37;10.30;99.90
19654;DHT22;9975;48.046;7.804;2023-05-14T03:58:02;10.40;99.90
19654;DHT22;9975;48.046;7.804;2023-05-14T04:00:31;10.50;99.90
19654;DHT22;9975;48.046;7.804;2023-05-14T04:02:57;10.50;99.90
19654;DHT22;9975;48.046;7.804;2023-05-14T04:05:23;10.40;99.90
19654;DHT22;9975;48.046;7.804;2023-05-14T04:07:48;10.40;99.90
19654;DHT22;9975;48.046;7.804;2023-05-14T04:10:14;10.30;99.90
19654;DHT22;9975;48.046;7.804;2023-05-14T04:12:40;10.30;99.90
19654;DHT22;9975;48.046;7.804;2023-05-14T04:15:06;10.30;99.90
19654;DHT22;9975;48.046;7.804;2023-05-14T04:17:32;10.30;99.90
19654;DHT22;9975;48.046;7.804;2023-05-14T04:19:58;10.30;99.90
19654;DHT22;9975;48.046;7.804;2023-05-14T04:22:23;10.40;99.90
19654;DHT22;9975;48.046;7.804;2023-05-14T04:24:49;10.40;99.90
19654;DHT22;9975;48.046;7.804;2023-05-14T04:27:21;10.40;99.90
19654;DHT22;9975;48.046;7.804;2023-05-14T04:29:47;10.50;99.90
19654;DHT22;9975;48.046;7.804;2023-05-14T04:32:13;10.50;99.90
19654;DHT22;9975;48.046;7.804;2023-05-14T04:34:39;10.50;99.90
19654;DHT22;9975;48.046;7.804;2023-05-14T04:37:05;10.50;99.90
19654;DHT22;9975;48.046;7.804;2023-05-14T04:39:31;10.50;99.90
19654;DHT22;9975;48.046;7.804;2023-05-14T04:41:56;10.70;99.90
19654;DHT22;9975;48.046;7.804;2023-05-14T04:44:22;10.70;99.90
19654;DHT22;9975;48.046;7.804;2023-05-14T04:46:47;10.70;99.90
19654;DHT22;9975;48.046;7.804;2023-05-14T04:49:13;10.80;99.90
19654;DHT22;9975;48.046;7.804;2023-05-14T04:51:39;10.80;99.90
19654;DHT22;9975;48.046;7.804;2023-05-14T04:54:05;10.80;99.90
19654;DHT22;9975;48.046;7.804;2023-05-14T04:56:31;10.80;99.90
19654;DHT22;9975;48.046;7.804;2023-05-14T04:58:56;10.80;99.90
19654;DHT22;9975;48.046;7.804;2023-05-14T05:01:22;10.80;99.90
19654;DHT22;9975;48.046;7.804;2023-05-14T05:03:49;10.80;99.90
19654;DHT22;9975;48.046;7.804;2023-05-14T05:06:15;10.80;99.90
19654;DHT22;9975;48.046;7.804;2023-05-14T05:08:40;10.90;99.90
19654;DHT22;9975;48.046;7.804;2023-05-14T05:11:06;10.90;99.90
19654;DHT22;9975;48.046;7.804;2023-05-14T05:13:32;10.90;99.90
19654;DHT22;9975;48.046;7.804;2023-05-14T05:15:58;10.90;99.90
19654;DHT22;9975;48.046;7.804;2023-05-14T05:18:23;10.90;99.90
19654;DHT22;9975;48.046;7.804;2023-05-14T05:20:49;10.90;99.90
19654;DHT22;9975;48.046;7.804;2023-05-14T05:23:14;10.90;99.90
19654;DHT22;9975;48.046;7.804;2023-05-14T05:25:40;11.00;99.90
19654;DHT22;9975;48.046;7.804;2023-05-14T05:28:06;11.00;99.90
19654;DHT22;9975;48.046;7.804;2023-05-14T05:30:31;11.00;99.90
19654;DHT22;9975;48.046;7.804;2023-05-14T05:32:57;11.00;99.90
19654;DHT22;9975;48.046;7.804;2023-05-14T05:35:23;11.10;99.90
19654;DHT22;9975;48.046;7.804;2023-05-14T05:37:48;11.10;99.90
19654;DHT22;9975;48.046;7.804;2023-05-14T05:40:14;11.20;99.90
19654;DHT22;9975;48.046;7.804;2023-05-14T05:42:40;11.30;99.90
19654;DHT22;9975;48.046;7.804;2023-05-14T05:45:07;11.30;99.90
19654;DHT22;9975;48.046;7.804;2023-05-14T05:47:32;11.30;99.90
19654;DHT22;9975;48.046;7.804;2023-05-14T05:49:58;11.40;99.90
19654;DHT22;9975;48.046;7.804;2023-05-14T05:52:24;11.40;99.90
19654;DHT22;9975;48.046;7.804;2023-05-14T05:54:50;11.40;99.90
19654;DHT22;9975;48.046;7.804;2023-05-14T05:57:15;11.50;99.90
19654;DHT22;9975;48.046;7.804;2023-05-14T05:59:42;11.50;99.90
19654;DHT22;9975;48.046;7.804;2023-05-14T06:02:08;11.50;99.90
19654;DHT22;9975;48.046;7.804;2023-05-14T06:04:33;11.50;99.90
19654;DHT22;9975;48.046;7.804;2023-05-14T06:06:59;11.50;99.90
19654;DHT22;9975;48.046;7.804;2023-05-14T06:09:26;11.50;99.90
19654;DHT22;9975;48.046;7.804;2023-05-14T06:11:52;11.60;99.90
19654;DHT22;9975;48.046;7.804;2023-05-14T06:14:17;11.60;99.90
19654;DHT22;9975;48.046;7.804;2023-05-14T06:16:43;11.70;99.90
19654;DHT22;9975;48.046;7.804;2023-05-14T06:19:08;11.80;99.90
19654;DHT22;9975;48.046;7.804;2023-05-14T06:21:34;11.90;99.90
19654;DHT22;9975;48.046;7.804;2023-05-14T06:24:00;11.90;99.90
19654;DHT22;9975;48.046;7.804;2023-05-14T06:26:25;11.90;99.90
19654;DHT22;9975;48.046;7.804;2023-05-14T06:28:51;11.90;99.90
19654;DHT22;9975;48.046;7.804;2023-05-14T06:31:17;11.90;99.90
19654;DHT22;9975;48.046;7.804;2023-05-14T06:33:43;11.90;99.90
19654;DHT22;9975;48.046;7.804;2023-05-14T06:36:09;12.00;99.90
19654;DHT22;9975;48.046;7.804;2023-05-14T06:38:35;12.00;99.90
19654;DHT22;9975;48.046;7.804;2023-05-14T06:41:01;12.10;99.90
19654;DHT22;9975;48.046;7.804;2023-05-14T06:43:27;12.30;99.90
19654;DHT22;9975;48.046;7.804;2023-05-14T06:45:53;12.30;99.90
19654;DHT22;9975;48.046;7.804;2023-05-14T06:48:19;12.50;99.90
19654;DHT22;9975;48.046;7.804;2023-05-14T06:50:48;12.50;99.90
19654;DHT22;9975;48.046;7.804;2023-05-14T06:53:14;12.70;99.90
19654;DHT22;9975;48.046;7.804;2023-05-14T06:55:40;12.80;99.90
19654;DHT22;9975;48.046;7.804;2023-05-14T06:58:06;12.90;99.90
19654;DHT22;9975;48.046;7.804;2023-05-14T07:00:32;13.00;99.90
19654;DHT22;9975;48.046;7.804;2023-05-14T07:02:58;13.10;99.90
19654;DHT22;9975;48.046;7.804;2023-05-14T07:05:24;13.20;99.90
19654;DHT22;9975;48.046;7.804;2023-05-14T07:07:49;13.30;99.90
19654;DHT22;9975;48.046;7.804;2023-05-14T07:10:15;13.30;99.90
19654;DHT22;9975;48.046;7.804;2023-05-14T07:12:41;13.40;99.90
19654;DHT22;9975;48.046;7.804;2023-05-14T07:15:07;13.40;99.90
19654;DHT22;9975;48.046;7.804;2023-05-14T07:17:33;13.50;99.90
19654;DHT22;9975;48.046;7.804;2023-05-14T07:19:58;13.60;99.90
19654;DHT22;9975;48.046;7.804;2023-05-14T07:22:24;13.70;99.90
19654;DHT22;9975;48.046;7.804;2023-05-14T07:24:49;13.70;99.90
19654;DHT22;9975;48.046;7.804;2023-05-14T07:27:15;13.70;99.90
19654;DHT22;9975;48.046;7.804;2023-05-14T07:29:43;13.80;99.90
19654;DHT22;9975;48.046;7.804;2023-05-14T07:32:09;13.80;99.90
19654;DHT22;9975;48.046;7.804;2023-05-14T07:34:35;13.90;99.90
19654;DHT22;9975;48.046;7.804;2023-05-14T07:37:01;14.00;99.90
19654;DHT22;9975;48.046;7.804;2023-05-14T07:39:26;14.00;99.90
19654;DHT22;9975;48.046;7.804;2023-05-14T07:41:52;14.10;99.90
19654;DHT22;9975;48.046;7.804;2023-05-14T07:44:19;14.20;99.90
19654;DHT22;9975;48.046;7.804;2023-05-14T07:46:45;14.30;99.90
19654;DHT22;9975;48.046;7.804;2023-05-14T07:49:11;14.40;99.90
19654;DHT22;9975;48.046;7.804;2023-05-14T07:51:36;14.50;99.90
19654;DHT22;9975;48.046;7.804;2023-05-14T07:54:02;14.60;99.90
19654;DHT22;9975;48.046;7.804;2023-05-14T07:56:29;14.70;99.90
19654;DHT22;9975;48.046;7.804;2023-05-14T07:58:55;14.90;99.90
19654;DHT22;9975;48.046;7.804;2023-05-14T08:01:21;15.00;99.90
19654;DHT22;9975;48.046;7.804;2023-05-14T08:03:47;15.10;99.90
19654;DHT22;9975;48.046;7.804;2023-05-14T08:06:13;15.20;99.90
19654;DHT22;9975;48.046;7.804;2023-05-14T08:08:39;15.00;99.90
19654;DHT22;9975;48.046;7.804;2023-05-14T08:11:04;15.00;99.90
19654;DHT22;9975;48.046;7.804;2023-05-14T08:13:30;15.00;99.90
19654;DHT22;9975;48.046;7.804;2023-05-14T08:15:56;15.10;99.90
19654;DHT22;9975;48.046;7.804;2023-05-14T08:18:22;14.90;99.90
19654;DHT22;9975;48.046;7.804;2023-05-14T08:20:48;15.10;99.90
19654;DHT22;9975;48.046;7.804;2023-05-14T08:23:14;15.10;99.90
19654;DHT22;9975;48.046;7.804;2023-05-14T08:25:40;15.10;99.90
19654;DHT22;9975;48.046;7.804;2023-05-14T08:28:06;15.30;99.90
19654;DHT22;9975;48.046;7.804;2023-05-14T08:30:32;15.50;99.90
19654;DHT22;9975;48.046;7.804;2023-05-14T08:32:58;15.60;99.90
19654;DHT22;9975;48.046;7.804;2023-05-14T08:35:24;15.50;99.90
19654;DHT22;9975;48.046;7.804;2023-05-14T08:37:49;15.30;99.90
19654;DHT22;9975;48.046;7.804;2023-05-14T08:40:15;15.30;99.90
19654;DHT22;9975;48.046;7.804;2023-05-14T08:42:42;15.20;99.90
19654;DHT22;9975;48.046;7.804;2023-05-14T08:45:19;15.40;99.90
19654;DHT22;9975;48.046;7.804;2023-05-14T08:47:49;15.70;99.90
19654;DHT22;9975;48.046;7.804;2023-05-14T08:50:16;15.80;99.90
19654;DHT22;9975;48.046;7.804;2023-05-14T08:52:43;16.00;99.90
19654;DHT22;9975;48.046;7.804;2023-05-14T08:55:09;16.20;99.90
19654;DHT22;9975;48.046;7.804;2023-05-14T08:57:36;16.00;99.90
19654;DHT22;9975;48.046;7.804;2023-05-14T09:00:02;16.10;99.90
19654;DHT22;9975;48.046;7.804;2023-05-14T09:02:39;16.50;99.90
19654;DHT22;9975;48.046;7.804;2023-05-14T09:05:05;17.00;99.90
19654;DHT22;9975;48.046;7.804;2023-05-14T09:07:32;16.90;99.90
19654;DHT22;9975;48.046;7.804;2023-05-14T09:09:58;16.90;99.90
19654;DHT22;9975;48.046;7.804;2023-05-14T09:12:24;16.70;99.90
19654;DHT22;9975;48.046;7.804;2023-05-14T09:14:50;16.70;99.90
19654;DHT22;9975;48.046;7.804;2023-05-14T09:17:17;17.10;99.90
19654;DHT22;9975;48.046;7.804;2023-05-14T09:19:44;17.00;99.90
19654;DHT22;9975;48.046;7.804;2023-05-14T09:22:15;17.20;99.90
19654;DHT22;9975;48.046;7.804;2023-05-14T09:24:41;17.40;99.90
19654;DHT22;9975;48.046;7.804;2023-05-14T09:27:08;17.80;99.90
19654;DHT22;9975;48.046;7.804;2023-05-14T09:29:36;18.30;99.90
19654;DHT22;9975;48.046;7.804;2023-05-14T09:32:02;18.90;99.90
19654;DHT22;9975;48.046;7.804;2023-05-14T09:34:33;19.20;99.80
19654;DHT22;9975;48.046;7.804;2023-05-14T09:37:01;19.50;99.60
19654;DHT22;9975;48.046;7.804;2023-05-14T09:39:27;19.70;97.40
19654;DHT22;9975;48.046;7.804;2023-05-14T09:41:53;19.30;95.50
19654;DHT22;9975;48.046;7.804;2023-05-14T09:44:20;18.90;96.30
19654;DHT22;9975;48.046;7.804;2023-05-14T09:46:46;19.10;97.00
19654;DHT22;9975;48.046;7.804;2023-05-14T09:49:11;19.30;95.80
19654;DHT22;9975;48.046;7.804;2023-05-14T09:51:37;18.70;94.70
19654;DHT22;9975;48.046;7.804;2023-05-14T09:54:04;18.80;95.60
19654;DHT22;9975;48.046;7.804;2023-05-14T09:56:32;18.90;96.10
19654;DHT22;9975;48.046;7.804;2023-05-14T09:58:58;18.40;96.20
19654;DHT22;9975;48.046;7.804;2023-05-14T10:01:24;18.50;97.20
19654;DHT22;9975;48.046;7.804;2023-05-14T10:03:51;18.60;95.90
19654;DHT22;9975;48.046;7.804;2023-05-14T10:06:18;18.80;95.50
19654;DHT22;9975;48.046;7.804;2023-05-14T10:08:47;18.90;95.00
19654;DHT22;9975;48.046;7.804;2023-05-14T10:11:35;19.10;95.30
19654;DHT22;9975;48.046;7.804;2023-05-14T10:14:17;19.20;94.30
19654;DHT22;9975;48.046;7.804;2023-05-14T10:16:52;19.40;93.40
19654;DHT22;9975;48.046;7.804;2023-05-14T10:19:20;19.40;92.00
19654;DHT22;9975;48.046;7.804;2023-05-14T10:21:54;19.30;91.00
19654;DHT22;9975;48.046;7.804;2023-05-14T10:24:20;19.40;92.70
19654;DHT22;9975;48.046;7.804;2023-05-14T10:26:48;19.60;92.20
19654;DHT22;9975;48.046;7.804;2023-05-14T10:29:13;19.70;91.80
19654;DHT22;9975;48.046;7.804;2023-05-14T10:31:57;19.50;91.00
19654;DHT22;9975;48.046;7.804;2023-05-14T10:34:42;19.30;91.80
19654;DHT22;9975;48.046;7.804;2023-05-14T10:37:20;18.80;91.60
19654;DHT22;9975;48.046;7.804;2023-05-14T10:39:53;18.80;92.00
19654;DHT22;9975;48.046;7.804;2023-05-14T10:42:24;18.80;92.50
19654;DHT22;9975;48.046;7.804;2023-05-14T10:44:56;19.30;92.40
19654;DHT22;9975;48.046;7.804;2023-05-14T10:47:30;19.50;90.60
19654;DHT22;9975;48.046;7.804;2023-05-14T10:49:57;19.20;90.40
19654;DHT22;9975;48.046;7.804;2023-05-14T10:52:23;19.10;90.90
19654;DHT22;9975;48.046;7.804;2023-05-14T10:54:54;19.10;90.70
19654;DHT22;9975;48.046;7.804;2023-05-14T10:57:22;19.40;89.90
19654;DHT22;9975;48.046;7.804;2023-05-14T10:59:51;19.70;88.30
19654;DHT22;9975;48.046;7.804;2023-05-14T11:02:25;20.00;87.90
19654;DHT22;9975;48.046;7.804;2023-05-14T11:04:56;19.90;83.20
19654;DHT22;9975;48.046;7.804;2023-05-14T11:07:30;19.70;84.90
19654;DHT22;9975;48.046;7.804;2023-05-14T11:10:12;20.00;87.80
19654;DHT22;9975;48.046;7.804;2023-05-14T11:12:41;20.10;84.30
19654;DHT22;9975;48.046;7.804;2023-05-14T11:15:09;20.30;82.50
19654;DHT22;9975;48.046;7.804;2023-05-14T11:17:37;20.40;83.00
19654;DHT22;9975;48.046;7.804;2023-05-14T11:20:03;20.60;80.10
19654;DHT22;9975;48.046;7.804;2023-05-14T11:22:33;20.30;79.00
19654;DHT22;9975;48.046;7.804;2023-05-14T11:25:09;19.90;79.60
19654;DHT22;9975;48.046;7.804;2023-05-14T11:27:37;19.50;80.00
19654;DHT22;9975;48.046;7.804;2023-05-14T11:30:03;19.30;82.40
19654;DHT22;9975;48.046;7.804;2023-05-14T11:32:31;19.40;88.00
19654;DHT22;9975;48.046;7.804;2023-05-14T11:34:56;19.50;91.40
19654;DHT22;9975;48.046;7.804;2023-05-14T11:37:22;19.60;91.20
19654;DHT22;9975;48.046;7.804;2023-05-14T11:39:51;19.40;92.20
19654;DHT22;9975;48.046;7.804;2023-05-14T11:42:18;19.20;94.20
19654;DHT22;9975;48.046;7.804;2023-05-14T11:44:48;19.10;94.60
19654;DHT22;9975;48.046;7.804;2023-05-14T11:47:15;18.90;94.50
19654;DHT22;9975;48.046;7.804;2023-05-14T11:49:41;18.30;95.30
19654;DHT22;9975;48.046;7.804;2023-05-14T11:52:08;18.10;97.60
19654;DHT22;9975;48.046;7.804;2023-05-14T11:54:36;17.70;98.30
19654;DHT22;9975;48.046;7.804;2023-05-14T11:57:08;17.50;99.90
19654;DHT22;9975;48.046;7.804;2023-05-14T11:59:33;17.40;99.90
19654;DHT22;9975;48.046;7.804;2023-05-14T12:02:00;17.40;99.90
19654;DHT22;9975;48.046;7.804;2023-05-14T12:04:27;17.60;99.90
19654;DHT22;9975;48.046;7.804;2023-05-14T12:06:56;17.80;99.90
19654;DHT22;9975;48.046;7.804;2023-05-14T12:09:22;17.90;99.90
19654;DHT22;9975;48.046;7.804;2023-05-14T12:11:49;18.20;99.90
19654;DHT22;9975;48.046;7.804;2023-05-14T12:14:20;18.50;99.90
19654;DHT22;9975;48.046;7.804;2023-05-14T12:16:46;18.80;99.90
19654;DHT22;9975;48.046;7.804;2023-05-14T12:19:17;19.10;99.90
19654;DHT22;9975;48.046;7.804;2023-05-14T12:21:44;19.40;99.90
19654;DHT22;9975;48.046;7.804;2023-05-14T12:24:17;19.80;99.90
19654;DHT22;9975;48.046;7.804;2023-05-14T12:26:47;20.00;97.30
19654;DHT22;9975;48.046;7.804;2023-05-14T12:29:14;20.10;96.90
19654;DHT22;9975;48.046;7.804;2023-05-14T12:31:48;20.30;96.10
19654;DHT22;9975;48.046;7.804;2023-05-14T12:34:14;20.40;96.20
19654;DHT22;9975;48.046;7.804;2023-05-14T12:36:40;20.30;91.70
19654;DHT22;9975;48.046;7.804;2023-05-14T12:39:06;20.20;91.90
19654;DHT22;9975;48.046;7.804;2023-05-14T12:41:32;20.20;91.00
19654;DHT22;9975;48.046;7.804;2023-05-14T12:43:59;20.20;91.30
19654;DHT22;9975;48.046;7.804;2023-05-14T12:46:26;20.20;91.00
19654;DHT22;9975;48.046;7.804;2023-05-14T12:48:52;20.10;91.90
19654;DHT22;9975;48.046;7.804;2023-05-14T12:51:18;19.90;94.00
19654;DHT22;9975;48.046;7.804;2023-05-14T12:53:44;19.70;95.30
19654;DHT22;9975;48.046;7.804;2023-05-14T12:56:10;19.20;96.80
19654;DHT22;9975;48.046;7.804;2023-05-14T12:58:36;18.80;97.00
19654;DHT22;9975;48.046;7.804;2023-05-14T13:01:01;18.50;97.60
19654;DHT22;9975;48.046;7.804;2023-05-14T13:03:27;18.20;98.60
19654;DHT22;9975;48.046;7.804;2023-05-14T13:05:53;18.00;99.90
19654;DHT22;9975;48.046;7.804;2023-05-14T13:08:20;17.90;99.90
19654;DHT22;9975;48.046;7.804;2023-05-14T13:10:46;17.70;99.90
19654;DHT22;9975;48.046;7.804;2023-05-14T13:13:14;17.50;99.90
19654;DHT22;9975;48.046;7.804;2023-05-14T13:15:40;17.20;99.90
19654;DHT22;9975;48.046;7.804;2023-05-14T13:18:05;17.00;99.90
19654;DHT22;9975;48.046;7.804;2023-05-14T13:20:32;16.90;99.90
19654;DHT22;9975;48.046;7.804;2023-05-14T13:22:58;16.80;99.90
19654;DHT22;9975;48.046;7.804;2023-05-14T13:25:24;16.70;99.90
19654;DHT22;9975;48.046;7.804;2023-05-14T13:27:50;16.80;99.90
19654;DHT22;9975;48.046;7.804;2023-05-14T13:30:19;16.90;99.90
19654;DHT22;9975;48.046;7.804;2023-05-14T13:32:45;17.00;99.90
19654;DHT22;9975;48.046;7.804;2023-05-14T13:35:11;17.20;99.90
19654;DHT22;9975;48.046;7.804;2023-05-14T13:37:38;17.50;99.90
19654;DHT22;9975;48.046;7.804;2023-05-14T13:40:04;18.10;99.90
19654;DHT22;9975;48.046;7.804;2023-05-14T13:42:32;18.20;99.90
19654;DHT22;9975;48.046;7.804;2023-05-14T13:44:58;18.50;99.90
19654;DHT22;9975;48.046;7.804;2023-05-14T13:47:25;18.90;99.90
19654;DHT22;9975;48.046;7.804;2023-05-14T13:49:55;19.00;99.90
19654;DHT22;9975;48.046;7.804;2023-05-14T13:52:21;19.00;99.90
19654;DHT22;9975;48.046;7.804;2023-05-14T13:54:47;18.90;99.90
19654;DHT22;9975;48.046;7.804;2023-05-14T13:57:13;19.00;99.90
19654;DHT22;9975;48.046;7.804;2023-05-14T13:59:38;18.90;99.90
19654;DHT22;9975;48.046;7.804;2023-05-14T14:02:05;18.80;99.90
19654;DHT22;9975;48.046;7.804;2023-05-14T14:04:30;18.70;99.90
19654;DHT22;9975;48.046;7.804;2023-05-14T14:06:56;18.70;99.90
19654;DHT22;9975;48.046;7.804;2023-05-14T14:09:22;18.70;99.90
19654;DHT22;9975;48.046;7.804;2023-05-14T14:11:48;18.80;99.90
19654;DHT22;9975;48.046;7.804;2023-05-14T14:14:13;18.80;95.50
19654;DHT22;9975;48.046;7.804;2023-05-14T14:16:39;18.90;96.40
19654;DHT22;9975;48.046;7.804;2023-05-14T14:19:05;19.30;96.50
19654;DHT22;9975;48.046;7.804;2023-05-14T14:21:31;19.70;94.90
19654;DHT22;9975;48.046;7.804;2023-05-14T14:23:57;20.10;95.50
19654;DHT22;9975;48.046;7.804;2023-05-14T14:26:22;20.40;94.20
19654;DHT22;9975;48.046;7.804;2023-05-14T14:28:48;20.60;92.80
19654;DHT22;9975;48.046;7.804;2023-05-14T14:31:15;20.90;90.60
19654;DHT22;9975;48.046;7.804;2023-05-14T14:33:41;21.10;90.00
19654;DHT22;9975;48.046;7.804;2023-05-14T14:36:07;21.40;90.50
19654;DHT22;9975;48.046;7.804;2023-05-14T14:38:33;21.60;88.10
19654;DHT22;9975;48.046;7.804;2023-05-14T14:40:59;21.70;87.00
19654;DHT22;9975;48.046;7.804;2023-05-14T14:43:27;21.60;85.30
19654;DHT22;9975;48.046;7.804;2023-05-14T14:45:53;21.50;85.10
19654;DHT22;9975;48.046;7.804;2023-05-14T14:48:27;21.40;78.80
19654;DHT22;9975;48.046;7.804;2023-05-14T14:50:56;21.20;79.60
19654;DHT22;9975;48.046;7.804;2023-05-14T14:53:22;20.90;81.50
19654;DHT22;9975;48.046;7.804;2023-05-14T14:55:48;20.70;80.70
19654;DHT22;9975;48.046;7.804;2023-05-14T14:58:14;20.70;80.40
19654;DHT22;9975;48.046;7.804;2023-05-14T15:00:40;20.90;82.20
19654;DHT22;9975;48.046;7.804;2023-05-14T15:03:06;21.10;81.60
19654;DHT22;9975;48.046;7.804;2023-05-14T15:05:34;21.30;76.80
19654;DHT22;9975;48.046;7.804;2023-05-14T15:07:59;21.30;78.00
19654;DHT22;9975;48.046;7.804;2023-05-14T15:10:27;21.40;77.40
19654;DHT22;9975;48.046;7.804;2023-05-14T15:12:55;21.10;76.80
19654;DHT22;9975;48.046;7.804;2023-05-14T15:15:21;20.80;73.00
19654;DHT22;9975;48.046;7.804;2023-05-14T15:17:46;20.70;71.50
19654;DHT22;9975;48.046;7.804;2023-05-14T15:20:12;20.50;72.10
19654;DHT22;9975;48.046;7.804;2023-05-14T15:23:23;20.30;72.80
19654;DHT22;9975;48.046;7.804;2023-05-14T15:25:33;20.20;74.70
19654;DHT22;9975;48.046;7.804;2023-05-14T15:27:58;20.00;72.40
19654;DHT22;9975;48.046;7.804;2023-05-14T15:30:24;20.00;72.50
19654;DHT22;9975;48.046;7.804;2023-05-14T15:32:49;20.10;72.30
19654;DHT22;9975;48.046;7.804;2023-05-14T15:35:15;20.30;72.90
19654;DHT22;9975;48.046;7.804;2023-05-14T15:37:42;20.50;72.80
19654;DHT22;9975;48.046;7.804;2023-05-14T15:40:09;20.30;70.00
19654;DHT22;9975;48.046;7.804;2023-05-14T15:42:36;20.10;69.20
19654;DHT22;9975;48.046;7.804;2023-05-14T15:45:02;20.00;69.10
19654;DHT22;9975;48.046;7.804;2023-05-14T15:47:27;19.90;69.50
19654;DHT22;9975;48.046;7.804;2023-05-14T15:49:53;19.90;70.60
19654;DHT22;9975;48.046;7.804;2023-05-14T15:52:19;19.80;69.20
19654;DHT22;9975;48.046;7.804;2023-05-14T15:54:45;19.80;68.20
19654;DHT22;9975;48.046;7.804;2023-05-14T15:57:11;19.80;66.00
19654;DHT22;9975;48.046;7.804;2023-05-14T15:59:37;19.60;66.10
19654;DHT22;9975;48.046;7.804;2023-05-14T16:02:03;19.50;66.30
19654;DHT22;9975;48.046;7.804;2023-05-14T16:04:28;19.50;67.30
19654;DHT22;9975;48.046;7.804;2023-05-14T16:07:04;19.50;68.20
19654;DHT22;9975;48.046;7.804;2023-05-14T16:09:31;19.40;70.00
19654;DHT22;9975;48.046;7.804;2023-05-14T16:11:57;19.30;68.00
19654;DHT22;9975;48.046;7.804;2023-05-14T16:14:23;19.00;67.60
19654;DHT22;9975;48.046;7.804;2023-05-14T16:16:49;18.90;69.40
19654;DHT22;9975;48.046;7.804;2023-05-14T16:19:15;18.80;69.20
19654;DHT22;9975;48.046;7.804;2023-05-14T16:21:43;18.60;69.20
19654;DHT22;9975;48.046;7.804;2023-05-14T16:24:09;18.60;70.10
19654;DHT22;9975;48.046;7.804;2023-05-14T16:26:35;18.60;70.30
19654;DHT22;9975;48.046;7.804;2023-05-14T16:29:00;18.60;69.90
19654;DHT22;9975;48.046;7.804;2023-05-14T16:31:26;18.60;70.70
19654;DHT22;9975;48.046;7.804;2023-05-14T16:33:51;18.60;69.80
19654;DHT22;9975;48.046;7.804;2023-05-14T16:36:17;18.60;70.50
19654;DHT22;9975;48.046;7.804;2023-05-14T16:38:43;18.60;71.80
19654;DHT22;9975;48.046;7.804;2023-05-14T16:41:08;18.60;71.20
19654;DHT22;9975;48.046;7.804;2023-05-14T16:43:35;18.50;71.70
19654;DHT22;9975;48.046;7.804;2023-05-14T16:46:00;18.60;71.90
19654;DHT22;9975;48.046;7.804;2023-05-14T16:48:26;18.60;71.80
19654;DHT22;9975;48.046;7.804;2023-05-14T16:50:52;18.50;71.20
19654;DHT22;9975;48.046;7.804;2023-05-14T16:53:18;18.60;71.80
19654;DHT22;9975;48.046;7.804;2023-05-14T16:55:44;18.70;71.80
19654;DHT22;9975;48.046;7.804;2023-05-14T16:58:09;18.80;71.80
19654;DHT22;9975;48.046;7.804;2023-05-14T17:00:35;18.90;73.00
19654;DHT22;9975;48.046;7.804;2023-05-14T17:03:00;19.00;72.50
19654;DHT22;9975;48.046;7.804;2023-05-14T17:05:26;19.10;71.30
19654;DHT22;9975;48.046;7.804;2023-05-14T17:07:52;19.20;71.30
19654;DHT22;9975;48.046;7.804;2023-05-14T17:10:18;19.30;72.20
19654;DHT22;9975;48.046;7.804;2023-05-14T17:12:43;19.40;70.90
19654;DHT22;9975;48.046;7.804;2023-05-14T17:15:09;19.50;71.00
19654;DHT22;9975;48.046;7.804;2023-05-14T17:17:35;19.60;70.80
19654;DHT22;9975;48.046;7.804;2023-05-14T17:20:01;19.70;68.40
19654;DHT22;9975;48.046;7.804;2023-05-14T17:22:26;19.80;67.20
19654;DHT22;9975;48.046;7.804;2023-05-14T17:24:52;19.80;67.90
19654;DHT22;9975;48.046;7.804;2023-05-14T17:27:18;19.90;68.60
19654;DHT22;9975;48.046;7.804;2023-05-14T17:29:43;19.90;69.10
19654;DHT22;9975;48.046;7.804;2023-05-14T17:32:09;19.80;68.30
19654;DHT22;9975;48.046;7.804;2023-05-14T17:34:34;19.80;68.10
19654;DHT22;9975;48.046;7.804;2023-05-14T17:37:00;19.80;67.70
19654;DHT22;9975;48.046;7.804;2023-05-14T17:39:26;19.80;65.70